sensor_id;sensor_type;location;lat;lon;timestamp;pressure;altitude;pressure_sealevel;temperature;humidity
29359;BME280;16347;53.232;6.556;2023-02-07T00:01:49;104107.13;;;8.80;59.28
29359;BME280;16347;53.232;6.556;2023-02-07T00:04:17;104106.47;;;8.75;58.83
29359;BME280;16347;53.232;6.556;2023-02-07T00:06:45;104097.59;;;8.71;59.05
29359;BME280;16347;53.232;6.556;2023-02-07T00:09:13;104105.16;;;8.63;59.42
29359;BME280;16347;53.232;6.556;2023-02-07T00:11:41;104104.19;;;8.66;59.75
29359;BME280;16347;53.232;6.556;2023-02-07T00:14:11;104099.41;;;8.71;59.57
29359;BME280;16347;53.232;6.556;2023-02-07T00:16:42;104100.72;;;8.83;59.18
29359;BME280;16347;53.232;6.556;2023-02-07T00:19:10;104097.50;;;8.73;59.02
29359;BME280;16347;53.232;6.556;2023-02-07T00:21:38;104100.50;;;8.67;59.45
29359;BME280;16347;53.232;6.556;2023-02-07T00:24:06;104097.78;;;8.67;59.10
29359;BME280;16347;53.232;6.556;2023-02-07T00:26:34;104093.06;;;8.72;58.90
29359;BME280;16347;53.232;6.556;2023-02-07T00:29:03;104093.09;;;8.70;59.17
29359;BME280;16347;53.232;6.556;2023-02-07T00:31:33;104091.41;;;8.68;59.40
29359;BME280;16347;53.232;6.556;2023-02-07T00:34:05;104089.34;;;8.53;59.51
29359;BME280;16347;53.232;6.556;2023-02-07T00:36:35;104092.16;;;8.71;59.54
29359;BME280;16347;53.232;6.556;2023-02-07T00:39:05;104075.94;;;8.70;59.31
29359;BME280;16347;53.232;6.556;2023-02-07T00:41:34;104078.75;;;8.68;59.21
29359;BME280;16347;53.232;6.556;2023-02-07T00:44:02;104079.50;;;8.72;59.01
29359;BME280;16347;53.232;6.556;2023-02-07T00:46:31;104080.44;;;8.71;59.24
29359;BME280;16347;53.232;6.556;2023-02-07T00:49:00;104084.97;;;8.70;59.08
29359;BME280;16347;53.232;6.556;2023-02-07T00:51:30;104083.56;;;8.82;58.87
29359;BME280;16347;53.232;6.556;2023-02-07T00:53:58;104088.72;;;8.68;58.76
29359;BME280;16347;53.232;6.556;2023-02-07T00:56:28;104080.28;;;8.74;58.15
29359;BME280;16347;53.232;6.556;2023-02-07T00:58:57;104077.06;;;8.66;58.45
29359;BME280;16347;53.232;6.556;2023-02-07T01:01:25;104082.25;;;8.50;58.83
29359;BME280;16347;53.232;6.556;2023-02-07T01:03:55;104085.53;;;8.58;58.66
29359;BME280;16347;53.232;6.556;2023-02-07T01:06:23;104086.78;;;8.50;58.66
29359;BME280;16347;53.232;6.556;2023-02-07T01:08:56;104081.13;;;8.56;58.17
29359;BME280;16347;53.232;6.556;2023-02-07T01:11:26;104079.53;;;8.50;57.91
29359;BME280;16347;53.232;6.556;2023-02-07T01:13:57;104087.94;;;8.44;58.71
29359;BME280;16347;53.232;6.556;2023-02-07T01:16:27;104088.84;;;8.45;59.01
29359;BME280;16347;53.232;6.556;2023-02-07T01:18:56;104096.22;;;8.41;59.11
29359;BME280;16347;53.232;6.556;2023-02-07T01:21:26;104097.09;;;8.42;59.53
29359;BME280;16347;53.232;6.556;2023-02-07T01:23:54;104093.38;;;8.44;59.56
29359;BME280;16347;53.232;6.556;2023-02-07T01:26:25;104095.94;;;8.47;60.01
29359;BME280;16347;53.232;6.556;2023-02-07T01:28:53;104097.63;;;8.50;58.64
29359;BME280;16347;53.232;6.556;2023-02-07T01:31:22;104103.31;;;8.44;58.73
29359;BME280;16347;53.232;6.556;2023-02-07T01:33:52;104104.06;;;8.47;58.96
29359;BME280;16347;53.232;6.556;2023-02-07T01:36:21;104105.84;;;8.48;59.04
29359;BME280;16347;53.232;6.556;2023-02-07T01:38:51;104107.63;;;8.49;58.82
29359;BME280;16347;53.232;6.556;2023-02-07T01:41:19;104107.72;;;8.46;58.05
29359;BME280;16347;53.232;6.556;2023-02-07T01:43:55;104116.97;;;8.42;58.74
29359;BME280;16347;53.232;6.556;2023-02-07T01:46:23;104110.56;;;8.43;58.86
29359;BME280;16347;53.232;6.556;2023-02-07T01:48:52;104099.84;;;8.40;59.08
29359;BME280;16347;53.232;6.556;2023-02-07T01:51:22;104108.34;;;8.33;58.82
29359;BME280;16347;53.232;6.556;2023-02-07T01:53:54;104099.88;;;8.18;59.71
29359;BME280;16347;53.232;6.556;2023-02-07T01:56:24;104098.56;;;8.29;59.04
29359;BME280;16347;53.232;6.556;2023-02-07T01:59:00;104094.22;;;8.23;58.27
29359;BME280;16347;53.232;6.556;2023-02-07T02:01:31;104095.00;;;8.26;58.73
29359;BME280;16347;53.232;6.556;2023-02-07T02:03:59;104081.78;;;8.19;59.62
29359;BME280;16347;53.232;6.556;2023-02-07T02:06:29;104081.88;;;8.16;59.91
29359;BME280;16347;53.232;6.556;2023-02-07T02:09:00;104084.50;;;8.19;59.80
29359;BME280;16347;53.232;6.556;2023-02-07T02:11:52;104073.28;;;8.28;59.90
29359;BME280;16347;53.232;6.556;2023-02-07T02:14:42;104072.22;;;8.32;59.30
29359;BME280;16347;53.232;6.556;2023-02-07T02:17:23;104072.38;;;8.27;58.78
29359;BME280;16347;53.232;6.556;2023-02-07T02:20:25;104087.75;;;8.27;59.24
29359;BME280;16347;53.232;6.556;2023-02-07T02:23:13;104090.59;;;8.24;59.29
29359;BME280;16347;53.232;6.556;2023-02-07T02:26:15;104087.66;;;8.30;59.44
29359;BME280;16347;53.232;6.556;2023-02-07T02:34:57;104096.00;;;8.24;58.65
29359;BME280;16347;53.232;6.556;2023-02-07T02:37:34;104100.81;;;8.17;58.85
29359;BME280;16347;53.232;6.556;2023-02-07T02:40:12;104095.66;;;8.11;58.60
29359;BME280;16347;53.232;6.556;2023-02-07T02:42:45;104094.50;;;8.17;58.75
29359;BME280;16347;53.232;6.556;2023-02-07T02:45:18;104093.19;;;8.05;58.59
29359;BME280;16347;53.232;6.556;2023-02-07T02:47:49;104092.44;;;8.02;58.88
29359;BME280;16347;53.232;6.556;2023-02-07T02:50:23;104080.63;;;8.03;58.63
29359;BME280;16347;53.232;6.556;2023-02-07T02:52:52;104087.66;;;8.08;57.96
29359;BME280;16347;53.232;6.556;2023-02-07T02:55:52;104091.41;;;8.04;58.82
29359;BME280;16347;53.232;6.556;2023-02-07T02:58:39;104083.44;;;8.01;58.32
29359;BME280;16347;53.232;6.556;2023-02-07T03:01:17;104081.91;;;7.94;58.21
29359;BME280;16347;53.232;6.556;2023-02-07T03:04:08;104087.03;;;8.02;58.62
29359;BME280;16347;53.232;6.556;2023-02-07T03:06:54;104088.00;;;7.99;58.12
29359;BME280;16347;53.232;6.556;2023-02-07T03:09:35;104089.28;;;7.91;57.52
29359;BME280;16347;53.232;6.556;2023-02-07T03:12:10;104071.69;;;7.57;59.33
29359;BME280;16347;53.232;6.556;2023-02-07T03:14:48;104071.00;;;7.74;59.28
29359;BME280;16347;53.232;6.556;2023-02-07T03:17:25;104069.94;;;7.78;58.46
29359;BME280;16347;53.232;6.556;2023-02-07T03:20:03;104081.50;;;7.60;58.08
29359;BME280;16347;53.232;6.556;2023-02-07T03:22:35;104086.53;;;7.24;58.33
29359;BME280;16347;53.232;6.556;2023-02-07T03:25:05;104091.97;;;7.22;58.70
29359;BME280;16347;53.232;6.556;2023-02-07T03:27:36;104083.06;;;7.20;59.06
29359;BME280;16347;53.232;6.556;2023-02-07T03:30:08;104090.94;;;7.27;60.08
29359;BME280;16347;53.232;6.556;2023-02-07T03:32:41;104092.94;;;7.21;60.67
29359;BME280;16347;53.232;6.556;2023-02-07T03:35:13;104086.94;;;7.37;60.09
29359;BME280;16347;53.232;6.556;2023-02-07T03:37:47;104080.28;;;7.45;59.12
29359;BME280;16347;53.232;6.556;2023-02-07T03:40:17;104087.53;;;7.45;59.42
29359;BME280;16347;53.232;6.556;2023-02-07T03:42:49;104077.94;;;7.36;59.39
29359;BME280;16347;53.232;6.556;2023-02-07T03:45:20;104081.16;;;7.46;58.73
29359;BME280;16347;53.232;6.556;2023-02-07T03:47:48;104085.28;;;7.33;58.22
29359;BME280;16347;53.232;6.556;2023-02-07T03:50:16;104092.19;;;6.93;58.01
29359;BME280;16347;53.232;6.556;2023-02-07T03:52:46;104093.19;;;6.66;59.57
29359;BME280;16347;53.232;6.556;2023-02-07T03:55:14;104084.03;;;6.70;59.13
29359;BME280;16347;53.232;6.556;2023-02-07T03:57:43;104089.34;;;6.73;59.03
29359;BME280;16347;53.232;6.556;2023-02-07T04:00:12;104091.25;;;6.69;59.27
29359;BME280;16347;53.232;6.556;2023-02-07T04:02:41;104092.97;;;6.72;59.07
29359;BME280;16347;53.232;6.556;2023-02-07T04:05:09;104077.13;;;6.61;58.77
29359;BME280;16347;53.232;6.556;2023-02-07T04:07:38;104086.06;;;6.63;58.53
29359;BME280;16347;53.232;6.556;2023-02-07T04:10:09;104090.84;;;6.31;59.12
29359;BME280;16347;53.232;6.556;2023-02-07T04:12:37;104088.75;;;6.39;59.42
29359;BME280;16347;53.232;6.556;2023-02-07T04:15:06;104083.63;;;6.31;59.19
29359;BME280;16347;53.232;6.556;2023-02-07T04:17:36;104085.38;;;6.32;59.13
29359;BME280;16347;53.232;6.556;2023-02-07T04:20:05;104085.38;;;6.32;59.13
29359;BME280;16347;53.232;6.556;2023-02-07T04:22:33;104090.16;;;6.24;59.03
29359;BME280;16347;53.232;6.556;2023-02-07T04:25:02;104088.59;;;6.17;59.18
29359;BME280;16347;53.232;6.556;2023-02-07T04:27:31;104081.47;;;6.14;58.79
29359;BME280;16347;53.232;6.556;2023-02-07T04:29:59;104087.81;;;5.87;59.04
29359;BME280;16347;53.232;6.556;2023-02-07T04:32:27;104097.03;;;5.79;59.35
29359;BME280;16347;53.232;6.556;2023-02-07T04:34:56;104109.84;;;5.72;59.08
29359;BME280;16347;53.232;6.556;2023-02-07T04:37:24;104109.25;;;5.62;59.24
29359;BME280;16347;53.232;6.556;2023-02-07T04:39:52;104101.53;;;5.78;60.36
29359;BME280;16347;53.232;6.556;2023-02-07T04:42:20;104108.19;;;5.97;59.69
29359;BME280;16347;53.232;6.556;2023-02-07T04:44:49;104119.00;;;5.96;58.46
29359;BME280;16347;53.232;6.556;2023-02-07T04:47:17;104109.75;;;5.75;58.83
29359;BME280;16347;53.232;6.556;2023-02-07T04:49:45;104104.88;;;5.58;59.80
29359;BME280;16347;53.232;6.556;2023-02-07T04:52:13;104103.25;;;5.53;59.39
29359;BME280;16347;53.232;6.556;2023-02-07T04:54:41;104116.13;;;5.73;59.61
29359;BME280;16347;53.232;6.556;2023-02-07T04:57:09;104113.28;;;5.77;58.92
29359;BME280;16347;53.232;6.556;2023-02-07T04:59:37;104114.94;;;5.81;59.06
29359;BME280;16347;53.232;6.556;2023-02-07T05:02:07;104110.22;;;5.89;58.64
29359;BME280;16347;53.232;6.556;2023-02-07T05:04:35;104112.72;;;5.95;57.99
29359;BME280;16347;53.232;6.556;2023-02-07T05:07:04;104117.09;;;5.99;58.59
29359;BME280;16347;53.232;6.556;2023-02-07T05:09:32;104116.00;;;6.05;58.47
29359;BME280;16347;53.232;6.556;2023-02-07T05:12:00;104114.25;;;6.04;58.39
29359;BME280;16347;53.232;6.556;2023-02-07T05:14:29;104107.88;;;6.06;57.83
29359;BME280;16347;53.232;6.556;2023-02-07T05:16:57;104107.19;;;6.00;57.09
29359;BME280;16347;53.232;6.556;2023-02-07T05:19:26;104095.38;;;6.02;57.47
29359;BME280;16347;53.232;6.556;2023-02-07T05:21:55;104106.16;;;6.04;57.19
29359;BME280;16347;53.232;6.556;2023-02-07T05:24:23;104102.72;;;5.99;56.55
29359;BME280;16347;53.232;6.556;2023-02-07T05:26:51;104109.19;;;5.93;56.44
29359;BME280;16347;53.232;6.556;2023-02-07T05:29:19;104099.44;;;5.60;57.47
29359;BME280;16347;53.232;6.556;2023-02-07T05:31:47;104094.84;;;5.62;57.97
29359;BME280;16347;53.232;6.556;2023-02-07T05:34:34;104094.63;;;5.69;57.71
29359;BME280;16347;53.232;6.556;2023-02-07T05:37:03;104095.63;;;5.67;57.65
29359;BME280;16347;53.232;6.556;2023-02-07T05:39:30;104089.81;;;5.79;57.93
29359;BME280;16347;53.232;6.556;2023-02-07T05:41:58;104091.31;;;5.89;57.66
29359;BME280;16347;53.232;6.556;2023-02-07T05:44:26;104091.94;;;5.69;57.12
29359;BME280;16347;53.232;6.556;2023-02-07T05:46:54;104094.03;;;5.60;57.51
29359;BME280;16347;53.232;6.556;2023-02-07T05:49:22;104081.22;;;5.66;57.38
29359;BME280;16347;53.232;6.556;2023-02-07T05:51:52;104086.66;;;5.65;57.04
29359;BME280;16347;53.232;6.556;2023-02-07T05:54:20;104089.47;;;5.62;57.07
29359;BME280;16347;53.232;6.556;2023-02-07T05:56:48;104092.75;;;5.72;57.56
29359;BME280;16347;53.232;6.556;2023-02-07T05:59:16;104082.50;;;5.83;58.13
29359;BME280;16347;53.232;6.556;2023-02-07T06:01:44;104091.34;;;5.88;56.76
29359;BME280;16347;53.232;6.556;2023-02-07T06:04:12;104085.00;;;5.90;56.89
29359;BME280;16347;53.232;6.556;2023-02-07T06:06:41;104088.31;;;5.98;56.66
29359;BME280;16347;53.232;6.556;2023-02-07T06:09:11;104087.84;;;5.86;55.76
29359;BME280;16347;53.232;6.556;2023-02-07T06:11:39;104082.84;;;5.72;55.73
29359;BME280;16347;53.232;6.556;2023-02-07T06:14:07;104090.34;;;5.62;56.16
29359;BME280;16347;53.232;6.556;2023-02-07T06:16:35;104088.91;;;5.51;56.78
29359;BME280;16347;53.232;6.556;2023-02-07T06:19:03;104080.34;;;5.66;57.43
29359;BME280;16347;53.232;6.556;2023-02-07T06:21:31;104082.34;;;5.59;56.81
29359;BME280;16347;53.232;6.556;2023-02-07T06:24:14;104082.03;;;5.70;56.28
29359;BME280;16347;53.232;6.556;2023-02-07T06:26:42;104082.84;;;5.72;56.55
29359;BME280;16347;53.232;6.556;2023-02-07T06:29:12;104088.34;;;5.69;55.50
29359;BME280;16347;53.232;6.556;2023-02-07T06:31:40;104089.84;;;5.50;56.04
29359;BME280;16347;53.232;6.556;2023-02-07T06:34:09;104079.88;;;5.52;55.94
29359;BME280;16347;53.232;6.556;2023-02-07T06:36:38;104080.19;;;5.41;55.77
29359;BME280;16347;53.232;6.556;2023-02-07T06:39:06;104073.84;;;5.44;56.33
29359;BME280;16347;53.232;6.556;2023-02-07T06:41:35;104074.69;;;5.46;56.08
29359;BME280;16347;53.232;6.556;2023-02-07T06:44:04;104073.75;;;5.47;56.07
29359;BME280;16347;53.232;6.556;2023-02-07T06:46:32;104064.88;;;5.43;56.29
29359;BME280;16347;53.232;6.556;2023-02-07T06:49:00;104062.69;;;5.27;56.64
29359;BME280;16347;53.232;6.556;2023-02-07T06:51:29;104066.25;;;5.27;56.46
29359;BME280;16347;53.232;6.556;2023-02-07T06:53:59;104069.09;;;5.23;56.32
29359;BME280;16347;53.232;6.556;2023-02-07T06:56:29;104066.69;;;5.13;56.50
29359;BME280;16347;53.232;6.556;2023-02-07T06:58:59;104061.19;;;5.16;56.82
29359;BME280;16347;53.232;6.556;2023-02-07T07:01:27;104056.06;;;5.07;56.97
29359;BME280;16347;53.232;6.556;2023-02-07T07:03:55;104065.25;;;5.00;56.81
29359;BME280;16347;53.232;6.556;2023-02-07T07:06:23;104064.19;;;5.06;57.22
29359;BME280;16347;53.232;6.556;2023-02-07T07:08:51;104067.88;;;5.03;56.98
29359;BME280;16347;53.232;6.556;2023-02-07T07:11:19;104061.31;;;5.12;57.00
29359;BME280;16347;53.232;6.556;2023-02-07T07:13:48;104062.31;;;5.09;56.40
29359;BME280;16347;53.232;6.556;2023-02-07T07:16:17;104064.50;;;4.95;56.71
29359;BME280;16347;53.232;6.556;2023-02-07T07:18:45;104061.94;;;4.91;56.74
29359;BME280;16347;53.232;6.556;2023-02-07T07:21:14;104066.41;;;4.92;57.15
29359;BME280;16347;53.232;6.556;2023-02-07T07:23:42;104068.28;;;4.90;56.94
29359;BME280;16347;53.232;6.556;2023-02-07T07:26:10;104055.81;;;4.86;56.98
29359;BME280;16347;53.232;6.556;2023-02-07T07:28:38;104061.28;;;4.83;57.24
29359;BME280;16347;53.232;6.556;2023-02-07T07:31:07;104058.53;;;4.84;57.19
29359;BME280;16347;53.232;6.556;2023-02-07T07:33:36;104068.44;;;4.84;57.21
29359;BME280;16347;53.232;6.556;2023-02-07T07:36:05;104066.72;;;4.81;57.05
29359;BME280;16347;53.232;6.556;2023-02-07T07:38:35;104062.00;;;4.89;58.03
29359;BME280;16347;53.232;6.556;2023-02-07T07:41:08;104069.50;;;5.09;57.23
29359;BME280;16347;53.232;6.556;2023-02-07T07:43:36;104071.00;;;5.19;56.54
29359;BME280;16347;53.232;6.556;2023-02-07T07:46:04;104077.47;;;5.13;56.26
29359;BME280;16347;53.232;6.556;2023-02-07T07:48:33;104071.13;;;5.14;56.00
29359;BME280;16347;53.232;6.556;2023-02-07T07:51:04;104078.41;;;5.12;56.02
29359;BME280;16347;53.232;6.556;2023-02-07T07:53:32;104080.19;;;5.12;55.69
29359;BME280;16347;53.232;6.556;2023-02-07T07:56:00;104093.56;;;5.16;56.00
29359;BME280;16347;53.232;6.556;2023-02-07T07:58:29;104095.06;;;5.27;56.05
29359;BME280;16347;53.232;6.556;2023-02-07T08:00:57;104102.47;;;5.18;55.33
29359;BME280;16347;53.232;6.556;2023-02-07T08:03:25;104093.31;;;5.24;54.69
29359;BME280;16347;53.232;6.556;2023-02-07T08:05:54;104098.25;;;5.10;54.76
29359;BME280;16347;53.232;6.556;2023-02-07T08:08:23;104102.97;;;5.02;55.26
29359;BME280;16347;53.232;6.556;2023-02-07T08:10:51;104101.19;;;5.01;55.85
29359;BME280;16347;53.232;6.556;2023-02-07T08:13:20;104106.00;;;5.21;55.16
29359;BME280;16347;53.232;6.556;2023-02-07T08:15:48;104106.06;;;5.19;55.49
29359;BME280;16347;53.232;6.556;2023-02-07T08:18:16;104103.28;;;5.22;55.28
29359;BME280;16347;53.232;6.556;2023-02-07T08:20:44;104116.78;;;5.21;55.29
29359;BME280;16347;53.232;6.556;2023-02-07T08:23:12;104114.13;;;4.90;55.34
29359;BME280;16347;53.232;6.556;2023-02-07T08:25:42;104114.41;;;4.79;55.73
29359;BME280;16347;53.232;6.556;2023-02-07T08:28:12;104110.84;;;4.77;55.82
29359;BME280;16347;53.232;6.556;2023-02-07T08:30:41;104115.66;;;4.66;56.15
29359;BME280;16347;53.232;6.556;2023-02-07T08:33:09;104108.53;;;4.63;56.45
29359;BME280;16347;53.232;6.556;2023-02-07T08:35:38;104107.78;;;4.58;56.55
29359;BME280;16347;53.232;6.556;2023-02-07T08:38:06;104117.72;;;4.56;56.51
29359;BME280;16347;53.232;6.556;2023-02-07T08:40:35;104125.91;;;4.52;56.83
29359;BME280;16347;53.232;6.556;2023-02-07T08:43:05;104115.22;;;4.49;56.94
29359;BME280;16347;53.232;6.556;2023-02-07T08:45:38;104122.59;;;4.41;57.01
29359;BME280;16347;53.232;6.556;2023-02-07T08:48:06;104121.16;;;4.63;57.15
29359;BME280;16347;53.232;6.556;2023-02-07T08:50:37;104113.28;;;4.54;57.19
29359;BME280;16347;53.232;6.556;2023-02-07T08:53:06;104129.50;;;4.52;56.72
29359;BME280;16347;53.232;6.556;2023-02-07T08:55:34;104123.59;;;4.72;56.40
29359;BME280;16347;53.232;6.556;2023-02-07T08:58:04;104119.91;;;4.75;56.52
29359;BME280;16347;53.232;6.556;2023-02-07T09:00:32;104128.41;;;4.93;56.14
29359;BME280;16347;53.232;6.556;2023-02-07T09:03:02;104119.16;;;5.02;55.63
29359;BME280;16347;53.232;6.556;2023-02-07T09:05:31;104121.81;;;5.03;55.16
29359;BME280;16347;53.232;6.556;2023-02-07T09:07:59;104128.34;;;4.95;55.30
29359;BME280;16347;53.232;6.556;2023-02-07T09:10:37;104120.84;;;5.06;55.28
29359;BME280;16347;53.232;6.556;2023-02-07T09:13:38;104121.94;;;4.99;55.44
29359;BME280;16347;53.232;6.556;2023-02-07T09:16:10;104126.31;;;5.03;55.44
29359;BME280;16347;53.232;6.556;2023-02-07T09:18:39;104125.63;;;4.96;55.78
29359;BME280;16347;53.232;6.556;2023-02-07T09:21:08;104124.44;;;5.06;55.40
29359;BME280;16347;53.232;6.556;2023-02-07T09:23:36;104120.78;;;5.07;55.74
29359;BME280;16347;53.232;6.556;2023-02-07T09:26:06;104125.75;;;5.23;55.67
29359;BME280;16347;53.232;6.556;2023-02-07T09:28:36;104127.66;;;5.19;54.94
29359;BME280;16347;53.232;6.556;2023-02-07T09:31:08;104121.38;;;5.18;54.76
29359;BME280;16347;53.232;6.556;2023-02-07T09:33:37;104128.13;;;5.02;54.46
29359;BME280;16347;53.232;6.556;2023-02-07T09:36:06;104125.53;;;4.99;54.76
29359;BME280;16347;53.232;6.556;2023-02-07T09:38:44;104126.38;;;4.69;54.99
29359;BME280;16347;53.232;6.556;2023-02-07T09:41:20;104118.00;;;4.78;55.11
29359;BME280;16347;53.232;6.556;2023-02-07T09:44:01;104119.63;;;4.53;55.74
29359;BME280;16347;53.232;6.556;2023-02-07T09:46:33;104115.88;;;4.57;55.60
29359;BME280;16347;53.232;6.556;2023-02-07T09:49:08;104128.56;;;4.18;56.23
29359;BME280;16347;53.232;6.556;2023-02-07T09:51:40;104130.97;;;3.93;56.94
29359;BME280;16347;53.232;6.556;2023-02-07T09:54:17;104118.13;;;4.06;57.83
29359;BME280;16347;53.232;6.556;2023-02-07T09:56:56;104120.50;;;4.18;57.58
29359;BME280;16347;53.232;6.556;2023-02-07T09:59:33;104117.72;;;4.21;57.36
29359;BME280;16347;53.232;6.556;2023-02-07T10:02:16;104132.34;;;4.11;58.02
29359;BME280;16347;53.232;6.556;2023-02-07T10:04:47;104130.22;;;4.24;58.12
29359;BME280;16347;53.232;6.556;2023-02-07T10:07:17;104139.31;;;4.20;58.20
29359;BME280;16347;53.232;6.556;2023-02-07T10:09:45;104139.75;;;4.37;57.87
29359;BME280;16347;53.232;6.556;2023-02-07T10:12:32;104131.97;;;4.60;58.02
29359;BME280;16347;53.232;6.556;2023-02-07T10:15:26;104120.81;;;4.75;58.10
29359;BME280;16347;53.232;6.556;2023-02-07T10:18:13;104116.91;;;4.87;56.92
29359;BME280;16347;53.232;6.556;2023-02-07T10:20:51;104127.75;;;4.84;56.79
29359;BME280;16347;53.232;6.556;2023-02-07T10:23:36;104122.94;;;4.95;57.07
29359;BME280;16347;53.232;6.556;2023-02-07T10:26:12;104127.34;;;4.97;56.56
29359;BME280;16347;53.232;6.556;2023-02-07T10:29:01;104128.75;;;5.12;57.20
29359;BME280;16347;53.232;6.556;2023-02-07T10:31:38;104124.47;;;5.36;56.27
29359;BME280;16347;53.232;6.556;2023-02-07T10:34:12;104128.03;;;5.05;57.33
29359;BME280;16347;53.232;6.556;2023-02-07T10:36:44;104129.88;;;5.34;57.12
29359;BME280;16347;53.232;6.556;2023-02-07T10:39:17;104125.88;;;5.47;56.66
29359;BME280;16347;53.232;6.556;2023-02-07T10:41:49;104122.44;;;5.44;57.03
29359;BME280;16347;53.232;6.556;2023-02-07T10:44:18;104124.38;;;5.39;56.27
29359;BME280;16347;53.232;6.556;2023-02-07T10:46:51;104128.94;;;5.37;56.77
29359;BME280;16347;53.232;6.556;2023-02-07T10:49:23;104127.06;;;5.39;57.02
29359;BME280;16347;53.232;6.556;2023-02-07T10:51:54;104122.50;;;5.41;57.37
29359;BME280;16347;53.232;6.556;2023-02-07T10:54:23;104133.56;;;5.32;57.62
29359;BME280;16347;53.232;6.556;2023-02-07T10:56:53;104133.06;;;5.48;56.86
29359;BME280;16347;53.232;6.556;2023-02-07T10:59:36;104129.06;;;5.61;57.24
29359;BME280;16347;53.232;6.556;2023-02-07T11:05:36;104115.09;;;5.77;57.12
29359;BME280;16347;53.232;6.556;2023-02-07T11:08:17;104112.34;;;5.78;57.63
29359;BME280;16347;53.232;6.556;2023-02-07T11:10:46;104112.53;;;6.01;57.46
29359;BME280;16347;53.232;6.556;2023-02-07T11:13:16;104110.25;;;6.15;57.00
29359;BME280;16347;53.232;6.556;2023-02-07T11:15:49;104111.47;;;6.33;56.95
29359;BME280;16347;53.232;6.556;2023-02-07T11:18:27;104112.00;;;6.44;56.22
29359;BME280;16347;53.232;6.556;2023-02-07T11:20:57;104112.47;;;6.55;56.21
29359;BME280;16347;53.232;6.556;2023-02-07T11:23:25;104105.03;;;6.62;55.02
29359;BME280;16347;53.232;6.556;2023-02-07T11:25:54;104094.94;;;6.42;54.46
29359;BME280;16347;53.232;6.556;2023-02-07T11:28:25;104097.88;;;6.35;55.48
29359;BME280;16347;53.232;6.556;2023-02-07T11:30:56;104106.41;;;6.49;54.95
29359;BME280;16347;53.232;6.556;2023-02-07T11:33:27;104097.63;;;6.42;55.17
29359;BME280;16347;53.232;6.556;2023-02-07T11:36:09;104104.06;;;6.38;55.57
29359;BME280;16347;53.232;6.556;2023-02-07T11:38:40;104098.16;;;6.53;54.98
29359;BME280;16347;53.232;6.556;2023-02-07T11:41:16;104103.34;;;6.59;55.22
29359;BME280;16347;53.232;6.556;2023-02-07T11:43:53;104103.78;;;6.47;55.12
29359;BME280;16347;53.232;6.556;2023-02-07T11:46:29;104108.03;;;6.54;55.34
29359;BME280;16347;53.232;6.556;2023-02-07T11:48:58;104090.81;;;6.57;54.99
29359;BME280;16347;53.232;6.556;2023-02-07T11:51:28;104093.44;;;6.34;55.57
29359;BME280;16347;53.232;6.556;2023-02-07T11:54:00;104091.84;;;6.53;56.18
29359;BME280;16347;53.232;6.556;2023-02-07T11:56:32;104087.75;;;6.67;55.02
29359;BME280;16347;53.232;6.556;2023-02-07T11:59:05;104094.34;;;6.59;54.67
29359;BME280;16347;53.232;6.556;2023-02-07T12:01:35;104099.84;;;6.56;55.34
29359;BME280;16347;53.232;6.556;2023-02-07T12:04:09;104095.44;;;6.53;56.07
29359;BME280;16347;53.232;6.556;2023-02-07T12:06:41;104092.84;;;6.50;56.27
29359;BME280;16347;53.232;6.556;2023-02-07T12:09:20;104093.25;;;6.64;55.94
29359;BME280;16347;53.232;6.556;2023-02-07T12:11:52;104091.81;;;6.79;55.63
29359;BME280;16347;53.232;6.556;2023-02-07T12:14:26;104089.88;;;6.83;55.33
29359;BME280;16347;53.232;6.556;2023-02-07T12:16:59;104087.69;;;6.94;56.38
29359;BME280;16347;53.232;6.556;2023-02-07T12:19:30;104082.22;;;7.18;54.96
29359;BME280;16347;53.232;6.556;2023-02-07T12:22:07;104071.19;;;7.25;55.25
29359;BME280;16347;53.232;6.556;2023-02-07T12:24:41;104072.28;;;7.19;54.97
29359;BME280;16347;53.232;6.556;2023-02-07T12:27:13;104073.41;;;7.37;54.87
29359;BME280;16347;53.232;6.556;2023-02-07T12:29:50;104068.97;;;7.57;54.17
29359;BME280;16347;53.232;6.556;2023-02-07T12:32:29;104068.81;;;7.62;53.20
29359;BME280;16347;53.232;6.556;2023-02-07T12:35:13;104066.72;;;7.68;54.06
29359;BME280;16347;53.232;6.556;2023-02-07T12:37:49;104069.94;;;7.78;52.76
29359;BME280;16347;53.232;6.556;2023-02-07T12:40:27;104063.13;;;7.68;53.27
29359;BME280;16347;53.232;6.556;2023-02-07T12:43:08;104058.47;;;7.71;53.67
29359;BME280;16347;53.232;6.556;2023-02-07T12:45:53;104071.94;;;7.73;52.95
29359;BME280;16347;53.232;6.556;2023-02-07T12:48:33;104061.47;;;7.86;52.83
29359;BME280;16347;53.232;6.556;2023-02-07T12:51:16;104067.16;;;8.01;54.11
29359;BME280;16347;53.232;6.556;2023-02-07T12:54:10;104063.63;;;8.21;52.23
29359;BME280;16347;53.232;6.556;2023-02-07T12:56:50;104055.53;;;8.19;52.74
29359;BME280;16347;53.232;6.556;2023-02-07T12:59:24;104055.00;;;8.11;51.86
29359;BME280;16347;53.232;6.556;2023-02-07T13:02:09;104055.88;;;8.34;52.24
29359;BME280;16347;53.232;6.556;2023-02-07T13:04:57;104043.38;;;8.30;52.18
29359;BME280;16347;53.232;6.556;2023-02-07T13:07:40;104041.66;;;8.29;52.74
29359;BME280;16347;53.232;6.556;2023-02-07T13:10:21;104050.19;;;8.60;53.14
29359;BME280;16347;53.232;6.556;2023-02-07T13:12:57;104038.81;;;8.52;51.88
29359;BME280;16347;53.232;6.556;2023-02-07T13:15:35;104035.41;;;8.47;51.15
29359;BME280;16347;53.232;6.556;2023-02-07T13:18:10;104038.38;;;8.61;51.06
29359;BME280;16347;53.232;6.556;2023-02-07T13:20:51;104034.97;;;8.96;51.51
29359;BME280;16347;53.232;6.556;2023-02-07T13:23:23;104035.09;;;8.93;49.11
29359;BME280;16347;53.232;6.556;2023-02-07T13:25:57;104027.91;;;8.92;49.89
29359;BME280;16347;53.232;6.556;2023-02-07T13:28:32;104032.28;;;9.15;50.61
29359;BME280;16347;53.232;6.556;2023-02-07T13:31:04;104028.09;;;9.26;49.45
29359;BME280;16347;53.232;6.556;2023-02-07T13:33:36;104028.03;;;9.09;47.43
29359;BME280;16347;53.232;6.556;2023-02-07T13:36:12;104033.75;;;8.83;48.48